sensor_id;sensor_type;location;lat;lon;timestamp;pressure;altitude;pressure_sealevel;temperature;humidity
78016;BME280;67223;51.102;5.882;2023-10-08T00:00:47;102307.31;;;17.05;100.00
78016;BME280;67223;51.102;5.882;2023-10-08T00:03:19;102308.09;;;16.96;100.00
78016;BME280;67223;51.102;5.882;2023-10-08T00:05:48;102310.06;;;16.94;100.00
78016;BME280;67223;51.102;5.882;2023-10-08T00:08:17;102313.78;;;16.93;100.00
78016;BME280;67223;51.102;5.882;2023-10-08T00:10:43;102304.59;;;16.85;100.00
78016;BME280;67223;51.102;5.882;2023-10-08T00:13:15;102308.91;;;16.87;100.00
78016;BME280;67223;51.102;5.882;2023-10-08T00:15:42;102308.91;;;16.87;100.00
78016;BME280;67223;51.102;5.882;2023-10-08T00:18:26;102312.84;;;16.83;100.00
78016;BME280;67223;51.102;5.882;2023-10-08T00:20:52;102314.41;;;16.86;100.00
78016;BME280;67223;51.102;5.882;2023-10-08T00:23:41;102312.56;;;16.86;100.00
78016;BME280;67223;51.102;5.882;2023-10-08T00:26:25;102309.41;;;16.81;100.00
78016;BME280;67223;51.102;5.882;2023-10-08T00:28:56;102305.50;;;16.74;100.00
78016;BME280;67223;51.102;5.882;2023-10-08T00:31:22;102294.47;;;16.77;100.00
78016;BME280;67223;51.102;5.882;2023-10-08T00:33:51;102304.00;;;16.81;100.00
78016;BME280;67223;51.102;5.882;2023-10-08T00:36:17;102302.28;;;16.80;100.00
78016;BME280;67223;51.102;5.882;2023-10-08T00:38:44;102304.00;;;16.81;100.00
78016;BME280;67223;51.102;5.882;2023-10-08T00:41:16;102294.72;;;16.74;100.00
78016;BME280;67223;51.102;5.882;2023-10-08T00:43:47;102301.81;;;16.75;100.00
78016;BME280;67223;51.102;5.882;2023-10-08T00:46:12;102303.81;;;16.73;100.00
78016;BME280;67223;51.102;5.882;2023-10-08T00:48:53;102290.25;;;16.63;100.00
78016;BME280;67223;51.102;5.882;2023-10-08T00:51:21;102299.66;;;16.58;100.00
78016;BME280;67223;51.102;5.882;2023-10-08T00:53:54;102289.78;;;16.58;100.00
78016;BME280;67223;51.102;5.882;2023-10-08T00:56:28;102295.88;;;16.60;100.00
78016;BME280;67223;51.102;5.882;2023-10-08T00:59:12;102294.91;;;16.61;100.00
78016;BME280;67223;51.102;5.882;2023-10-08T01:01:45;102304.44;;;16.54;100.00
78016;BME280;67223;51.102;5.882;2023-10-08T01:04:21;102315.59;;;16.50;100.00
78016;BME280;67223;51.102;5.882;2023-10-08T01:06:54;102314.75;;;16.49;100.00
78016;BME280;67223;51.102;5.882;2023-10-08T01:09:24;102301.66;;;16.45;100.00
78016;BME280;67223;51.102;5.882;2023-10-08T01:14:49;102306.44;;;16.41;100.00
78016;BME280;67223;51.102;5.882;2023-10-08T01:17:15;102298.00;;;16.34;100.00
78016;BME280;67223;51.102;5.882;2023-10-08T01:19:48;102292.88;;;16.31;100.00
78016;BME280;67223;51.102;5.882;2023-10-08T01:22:16;102297.03;;;16.24;100.00
78016;BME280;67223;51.102;5.882;2023-10-08T01:24:47;102296.06;;;16.25;100.00
78016;BME280;67223;51.102;5.882;2023-10-08T01:27:14;102306.63;;;16.28;100.00
78016;BME280;67223;51.102;5.882;2023-10-08T01:29:46;102295.84;;;16.17;100.00
78016;BME280;67223;51.102;5.882;2023-10-08T01:32:11;102297.31;;;16.21;100.00
78016;BME280;67223;51.102;5.882;2023-10-08T01:34:41;102301.72;;;16.22;100.00
78016;BME280;67223;51.102;5.882;2023-10-08T01:37:12;102307.34;;;16.19;100.00
78016;BME280;67223;51.102;5.882;2023-10-08T01:39:38;102295.25;;;16.14;100.00
78016;BME280;67223;51.102;5.882;2023-10-08T01:42:07;102295.38;;;16.12;100.00
78016;BME280;67223;51.102;5.882;2023-10-08T01:44:40;102295.88;;;16.06;100.00
78016;BME280;67223;51.102;5.882;2023-10-08T01:47:06;102289.72;;;16.04;100.00
78016;BME280;67223;51.102;5.882;2023-10-08T01:49:31;102291.22;;;15.97;100.00
78016;BME280;67223;51.102;5.882;2023-10-08T01:51:58;102279.84;;;15.82;100.00
78016;BME280;67223;51.102;5.882;2023-10-08T01:54:24;102281.69;;;15.82;100.00
78016;BME280;67223;51.102;5.882;2023-10-08T01:56:51;102279.22;;;15.90;100.00
78016;BME280;67223;51.102;5.882;2023-10-08T01:59:17;102288.28;;;15.89;100.00
78016;BME280;67223;51.102;5.882;2023-10-08T02:01:43;102286.31;;;15.91;100.00
78016;BME280;67223;51.102;5.882;2023-10-08T02:04:10;102272.38;;;15.86;100.00
78016;BME280;67223;51.102;5.882;2023-10-08T02:06:38;102272.25;;;15.65;100.00
78016;BME280;67223;51.102;5.882;2023-10-08T02:09:06;102279.09;;;15.69;100.00
78016;BME280;67223;51.102;5.882;2023-10-08T02:11:47;102280.97;;;15.69;100.00
78016;BME280;67223;51.102;5.882;2023-10-08T02:14:16;102277.28;;;15.70;100.00
78016;BME280;67223;51.102;5.882;2023-10-08T02:16:45;102276.78;;;15.76;100.00
78016;BME280;67223;51.102;5.882;2023-10-08T02:19:11;102265.41;;;15.72;100.00
78016;BME280;67223;51.102;5.882;2023-10-08T02:21:37;102271.16;;;15.57;100.00
78016;BME280;67223;51.102;5.882;2023-10-08T02:24:06;102264.81;;;15.58;100.00
78016;BME280;67223;51.102;5.882;2023-10-08T02:26:33;102255.13;;;15.66;100.00
78016;BME280;67223;51.102;5.882;2023-10-08T02:29:00;102256.97;;;15.77;100.00
78016;BME280;67223;51.102;5.882;2023-10-08T02:31:26;102273.00;;;15.78;100.00
78016;BME280;67223;51.102;5.882;2023-10-08T02:33:53;102271.41;;;15.76;100.00
78016;BME280;67223;51.102;5.882;2023-10-08T02:36:19;102254.38;;;15.75;100.00
78016;BME280;67223;51.102;5.882;2023-10-08T02:38:45;102252.69;;;15.63;100.00
78016;BME280;67223;51.102;5.882;2023-10-08T02:41:16;102265.53;;;15.71;100.00
78016;BME280;67223;51.102;5.882;2023-10-08T02:43:42;102288.31;;;15.78;100.00
78016;BME280;67223;51.102;5.882;2023-10-08T02:46:07;102289.03;;;15.80;100.00
78016;BME280;67223;51.102;5.882;2023-10-08T02:48:35;102264.78;;;15.80;100.00
78016;BME280;67223;51.102;5.882;2023-10-08T02:51:01;102287.06;;;15.82;100.00
78016;BME280;67223;51.102;5.882;2023-10-08T02:53:39;102283.41;;;15.83;100.00
78016;BME280;67223;51.102;5.882;2023-10-08T02:56:06;102280.56;;;15.84;100.00
78016;BME280;67223;51.102;5.882;2023-10-08T02:58:39;102279.47;;;15.76;100.00
78016;BME280;67223;51.102;5.882;2023-10-08T03:01:05;102273.88;;;15.79;100.00
78016;BME280;67223;51.102;5.882;2023-10-08T03:03:31;102280.59;;;15.73;100.00
78016;BME280;67223;51.102;5.882;2023-10-08T03:05:58;102283.03;;;15.76;100.00
78016;BME280;67223;51.102;5.882;2023-10-08T03:08:23;102290.16;;;15.77;100.00
78016;BME280;67223;51.102;5.882;2023-10-08T03:10:50;102292.72;;;15.79;100.00
78016;BME280;67223;51.102;5.882;2023-10-08T03:13:21;102295.16;;;15.82;100.00
78016;BME280;67223;51.102;5.882;2023-10-08T03:15:47;102301.63;;;15.79;100.00
78016;BME280;67223;51.102;5.882;2023-10-08T03:18:32;102305.56;;;15.75;100.00
78016;BME280;67223;51.102;5.882;2023-10-08T03:21:08;102307.88;;;15.80;100.00
78016;BME280;67223;51.102;5.882;2023-10-08T03:23:47;102308.25;;;15.75;100.00
78016;BME280;67223;51.102;5.882;2023-10-08T03:26:13;102308.50;;;15.72;100.00
78016;BME280;67223;51.102;5.882;2023-10-08T03:28:57;102298.81;;;15.70;100.00
78016;BME280;67223;51.102;5.882;2023-10-08T03:31:23;102302.03;;;15.64;100.00
78016;BME280;67223;51.102;5.882;2023-10-08T03:34:10;102299.06;;;15.67;100.00
78016;BME280;67223;51.102;5.882;2023-10-08T03:36:38;102299.69;;;15.70;100.00
78016;BME280;67223;51.102;5.882;2023-10-08T03:39:13;102298.81;;;15.70;100.00
78016;BME280;67223;51.102;5.882;2023-10-08T03:41:40;102313.50;;;15.66;100.00
78016;BME280;67223;51.102;5.882;2023-10-08T03:44:06;102309.59;;;15.70;100.00
78016;BME280;67223;51.102;5.882;2023-10-08T03:46:42;102312.66;;;15.65;100.00
78016;BME280;67223;51.102;5.882;2023-10-08T03:49:11;102315.34;;;15.65;100.00
78016;BME280;67223;51.102;5.882;2023-10-08T03:51:48;102311.44;;;15.58;100.00
78016;BME280;67223;51.102;5.882;2023-10-08T03:54:21;102320.06;;;15.50;100.00
78016;BME280;67223;51.102;5.882;2023-10-08T03:56:56;102320.38;;;15.59;100.00
78016;BME280;67223;51.102;5.882;2023-10-08T03:59:22;102324.66;;;15.61;100.00
78016;BME280;67223;51.102;5.882;2023-10-08T04:04:29;102333.03;;;15.45;100.00
78016;BME280;67223;51.102;5.882;2023-10-08T04:07:16;102340.91;;;15.48;100.00
78016;BME280;67223;51.102;5.882;2023-10-08T04:10:04;102335.97;;;15.42;100.00
78016;BME280;67223;51.102;5.882;2023-10-08T04:12:50;102344.66;;;15.46;100.00
78016;BME280;67223;51.102;5.882;2023-10-08T04:15:18;102347.13;;;15.49;100.00
78016;BME280;67223;51.102;5.882;2023-10-08T04:17:45;102347.00;;;15.50;100.00
78016;BME280;67223;51.102;5.882;2023-10-08T04:20:15;102342.59;;;15.38;100.00
78016;BME280;67223;51.102;5.882;2023-10-08T04:23:05;102347.47;;;15.44;100.00
78016;BME280;67223;51.102;5.882;2023-10-08T04:25:32;102345.78;;;15.43;100.00
78016;BME280;67223;51.102;5.882;2023-10-08T04:27:59;102344.56;;;15.47;100.00
78016;BME280;67223;51.102;5.882;2023-10-08T04:30:32;102342.59;;;15.38;100.00
78016;BME280;67223;51.102;5.882;2023-10-08T04:33:02;102349.06;;;15.36;100.00
78016;BME280;67223;51.102;5.882;2023-10-08T04:35:39;102337.91;;;15.40;100.00
78016;BME280;67223;51.102;5.882;2023-10-08T04:38:17;102331.31;;;15.33;100.00
78016;BME280;67223;51.102;5.882;2023-10-08T04:40:43;102326.75;;;15.23;100.00
78016;BME280;67223;51.102;5.882;2023-10-08T04:43:23;102321.13;;;15.26;100.00
78016;BME280;67223;51.102;5.882;2023-10-08T04:46:00;102320.66;;;15.32;100.00
78016;BME280;67223;51.102;5.882;2023-10-08T04:48:47;102319.91;;;15.30;100.00
78016;BME280;67223;51.102;5.882;2023-10-08T04:51:15;102317.56;;;15.25;100.00
78016;BME280;67223;51.102;5.882;2023-10-08T04:53:43;102329.19;;;15.26;100.00
78016;BME280;67223;51.102;5.882;2023-10-08T04:56:11;102333.38;;;15.30;100.00
78016;BME280;67223;51.102;5.882;2023-10-08T04:58:44;102351.34;;;15.29;100.00
78016;BME280;67223;51.102;5.882;2023-10-08T05:01:17;102337.88;;;15.29;100.00
78016;BME280;67223;51.102;5.882;2023-10-08T05:03:47;102322.56;;;15.07;100.00
78016;BME280;67223;51.102;5.882;2023-10-08T05:06:28;102331.00;;;15.03;100.00
78016;BME280;67223;51.102;5.882;2023-10-08T05:09:03;102328.88;;;14.95;100.00
78016;BME280;67223;51.102;5.882;2023-10-08T05:11:55;102343.47;;;15.04;100.00
78016;BME280;67223;51.102;5.882;2023-10-08T05:14:22;102348.16;;;15.13;100.00
78016;BME280;67223;51.102;5.882;2023-10-08T05:17:01;102353.53;;;15.13;100.00
78016;BME280;67223;51.102;5.882;2023-10-08T05:19:39;102350.69;;;15.15;100.00
78016;BME280;67223;51.102;5.882;2023-10-08T05:22:17;102359.22;;;14.97;100.00
78016;BME280;67223;51.102;5.882;2023-10-08T05:24:47;102361.78;;;14.99;100.00
78016;BME280;67223;51.102;5.882;2023-10-08T05:27:34;102369.97;;;14.97;100.00
78016;BME280;67223;51.102;5.882;2023-10-08T05:30:27;102371.53;;;14.89;100.00
78016;BME280;67223;51.102;5.882;2023-10-08T05:33:03;102374.94;;;14.91;100.00
78016;BME280;67223;51.102;5.882;2023-10-08T05:35:39;102379.34;;;14.92;100.00
78016;BME280;67223;51.102;5.882;2023-10-08T05:38:15;102369.34;;;14.94;100.00
78016;BME280;67223;51.102;5.882;2023-10-08T05:41:01;102371.75;;;14.86;100.00
78016;BME280;67223;51.102;5.882;2023-10-08T05:46:19;102383.97;;;14.90;100.00
78016;BME280;67223;51.102;5.882;2023-10-08T05:48:44;102383.97;;;14.90;100.00
78016;BME280;67223;51.102;5.882;2023-10-08T05:51:35;102385.84;;;14.89;100.00
78016;BME280;67223;51.102;5.882;2023-10-08T05:54:13;102382.28;;;14.89;100.00
78016;BME280;67223;51.102;5.882;2023-10-08T05:57:05;102386.28;;;14.83;100.00
78016;BME280;67223;51.102;5.882;2023-10-08T06:02:28;102392.41;;;14.85;100.00
78016;BME280;67223;51.102;5.882;2023-10-08T06:05:13;102400.13;;;14.90;100.00
78016;BME280;67223;51.102;5.882;2023-10-08T06:07:45;102407.44;;;15.12;100.00
78016;BME280;67223;51.102;5.882;2023-10-08T06:10:27;102427.16;;;15.82;100.00
78016;BME280;67223;51.102;5.882;2023-10-08T06:13:00;102413.78;;;15.58;100.00
78016;BME280;67223;51.102;5.882;2023-10-08T06:15:39;102409.41;;;15.90;100.00
78016;BME280;67223;51.102;5.882;2023-10-08T06:18:30;102433.91;;;16.10;100.00
78016;BME280;67223;51.102;5.882;2023-10-08T06:21:04;102425.28;;;15.71;100.00
78016;BME280;67223;51.102;5.882;2023-10-08T06:23:35;102419.56;;;15.87;100.00
78016;BME280;67223;51.102;5.882;2023-10-08T06:26:02;102423.75;;;16.02;100.00
78016;BME280;67223;51.102;5.882;2023-10-08T06:28:43;102423.56;;;15.70;100.00
78016;BME280;67223;51.102;5.882;2023-10-08T06:31:10;102420.31;;;15.43;100.00
78016;BME280;67223;51.102;5.882;2023-10-08T06:33:42;102414.38;;;15.27;100.00
78016;BME280;67223;51.102;5.882;2023-10-08T06:36:08;102426.44;;;15.21;100.00
78016;BME280;67223;51.102;5.882;2023-10-08T06:38:37;102426.56;;;15.20;100.00
78016;BME280;67223;51.102;5.882;2023-10-08T06:41:07;102401.16;;;14.76;100.00
78016;BME280;67223;51.102;5.882;2023-10-08T06:43:49;102409.28;;;14.63;100.00
78016;BME280;67223;51.102;5.882;2023-10-08T06:46:16;102406.34;;;14.67;100.00
78016;BME280;67223;51.102;5.882;2023-10-08T06:48:45;102401.59;;;14.70;100.00
78016;BME280;67223;51.102;5.882;2023-10-08T06:51:11;102400.13;;;14.66;100.00
78016;BME280;67223;51.102;5.882;2023-10-08T06:53:45;102389.47;;;14.64;100.00
78016;BME280;67223;51.102;5.882;2023-10-08T06:56:11;102395.16;;;14.73;100.00
78016;BME280;67223;51.102;5.882;2023-10-08T06:58:40;102395.50;;;14.68;100.00
78016;BME280;67223;51.102;5.882;2023-10-08T07:01:18;102382.16;;;14.67;100.00
78016;BME280;67223;51.102;5.882;2023-10-08T07:03:49;102395.06;;;14.74;100.00
78016;BME280;67223;51.102;5.882;2023-10-08T07:06:16;102396.97;;;14.96;100.00
78016;BME280;67223;51.102;5.882;2023-10-08T07:08:43;102397.38;;;15.02;100.00
78016;BME280;67223;51.102;5.882;2023-10-08T07:11:12;102401.97;;;15.13;100.00
78016;BME280;67223;51.102;5.882;2023-10-08T07:13:37;102400.84;;;15.16;100.00
78016;BME280;67223;51.102;5.882;2023-10-08T07:16:05;102395.00;;;15.22;100.00
78016;BME280;67223;51.102;5.882;2023-10-08T07:18:31;102392.44;;;15.20;100.00
78016;BME280;67223;51.102;5.882;2023-10-08T07:20:59;102397.63;;;15.34;100.00
78016;BME280;67223;51.102;5.882;2023-10-08T07:23:37;102399.31;;;15.59;100.00
78016;BME280;67223;51.102;5.882;2023-10-08T07:26:19;102404.00;;;16.35;100.00
78016;BME280;67223;51.102;5.882;2023-10-08T07:28:50;102405.38;;;16.18;100.00
78016;BME280;67223;51.102;5.882;2023-10-08T07:31:23;102390.19;;;15.95;100.00
78016;BME280;67223;51.102;5.882;2023-10-08T07:33:50;102386.25;;;16.10;100.00
78016;BME280;67223;51.102;5.882;2023-10-08T07:36:26;102387.34;;;15.85;100.00
78016;BME280;67223;51.102;5.882;2023-10-08T07:38:53;102392.84;;;16.51;100.00
78016;BME280;67223;51.102;5.882;2023-10-08T07:41:19;102400.50;;;17.20;100.00
78016;BME280;67223;51.102;5.882;2023-10-08T07:43:46;102394.25;;;17.20;100.00
78016;BME280;67223;51.102;5.882;2023-10-08T07:46:22;102393.72;;;16.94;100.00
78016;BME280;67223;51.102;5.882;2023-10-08T07:48:47;102391.81;;;16.85;100.00
78016;BME280;67223;51.102;5.882;2023-10-08T07:51:16;102390.81;;;16.86;100.00
78016;BME280;67223;51.102;5.882;2023-10-08T07:53:49;102391.22;;;17.55;100.00
78016;BME280;67223;51.102;5.882;2023-10-08T07:56:19;102389.28;;;17.57;100.00
78016;BME280;67223;51.102;5.882;2023-10-08T07:58:44;102380.94;;;18.21;100.00
78016;BME280;67223;51.102;5.882;2023-10-08T08:01:10;102391.94;;;18.38;100.00
78016;BME280;67223;51.102;5.882;2023-10-08T08:03:39;102383.84;;;18.38;100.00
78016;BME280;67223;51.102;5.882;2023-10-08T08:06:06;102384.84;;;18.37;100.00
78016;BME280;67223;51.102;5.882;2023-10-08T08:08:33;102382.34;;;18.55;100.00
78016;BME280;67223;51.102;5.882;2023-10-08T08:11:05;102400.78;;;19.00;100.00
78016;BME280;67223;51.102;5.882;2023-10-08T08:13:40;102386.13;;;19.12;100.00
78016;BME280;67223;51.102;5.882;2023-10-08T08:16:11;102399.38;;;19.24;100.00
78016;BME280;67223;51.102;5.882;2023-10-08T08:18:48;102398.81;;;19.30;100.00
78016;BME280;67223;51.102;5.882;2023-10-08T08:21:24;102407.22;;;19.56;100.00
78016;BME280;67223;51.102;5.882;2023-10-08T08:23:51;102401.22;;;19.72;100.00
78016;BME280;67223;51.102;5.882;2023-10-08T08:26:24;102403.88;;;19.91;100.00
78016;BME280;67223;51.102;5.882;2023-10-08T08:29:05;102408.94;;;20.04;100.00
78016;BME280;67223;51.102;5.882;2023-10-08T08:31:34;102401.59;;;20.24;100.00
78016;BME280;67223;51.102;5.882;2023-10-08T08:34:03;102410.44;;;20.35;100.00
78016;BME280;67223;51.102;5.882;2023-10-08T08:36:33;102415.00;;;20.35;100.00
78016;BME280;67223;51.102;5.882;2023-10-08T08:38:59;102407.66;;;20.45;100.00
78016;BME280;67223;51.102;5.882;2023-10-08T08:41:24;102408.97;;;20.41;100.00
78016;BME280;67223;51.102;5.882;2023-10-08T08:43:52;102412.72;;;20.30;100.00
78016;BME280;67223;51.102;5.882;2023-10-08T08:46:35;102425.22;;;20.50;100.00
78016;BME280;67223;51.102;5.882;2023-10-08T08:49:07;102427.56;;;20.63;100.00
78016;BME280;67223;51.102;5.882;2023-10-08T08:51:36;102428.53;;;20.72;100.00
78016;BME280;67223;51.102;5.882;2023-10-08T08:54:02;102438.00;;;20.85;100.00
78016;BME280;67223;51.102;5.882;2023-10-08T08:56:34;102415.41;;;21.30;100.00
78016;BME280;67223;51.102;5.882;2023-10-08T08:59:02;102419.72;;;21.05;100.00
78016;BME280;67223;51.102;5.882;2023-10-08T09:01:30;102428.53;;;21.07;100.00
78016;BME280;67223;51.102;5.882;2023-10-08T09:04:01;102434.38;;;21.12;100.00
78016;BME280;67223;51.102;5.882;2023-10-08T09:06:32;102441.16;;;21.43;100.00
78016;BME280;67223;51.102;5.882;2023-10-08T09:09:02;102437.00;;;21.31;100.00
78016;BME280;67223;51.102;5.882;2023-10-08T09:11:48;102437.66;;;21.51;100.00
78016;BME280;67223;51.102;5.882;2023-10-08T09:14:19;102448.06;;;21.56;100.00
78016;BME280;67223;51.102;5.882;2023-10-08T09:16:45;102448.00;;;21.30;100.00
78016;BME280;67223;51.102;5.882;2023-10-08T09:19:12;102452.00;;;21.08;100.00
78016;BME280;67223;51.102;5.882;2023-10-08T09:21:46;102467.50;;;20.98;100.00
78016;BME280;67223;51.102;5.882;2023-10-08T09:24:24;102476.69;;;20.97;100.00
78016;BME280;67223;51.102;5.882;2023-10-08T09:26:51;102467.63;;;20.79;100.00
78016;BME280;67223;51.102;5.882;2023-10-08T09:29:17;102475.03;;;20.86;100.00
78016;BME280;67223;51.102;5.882;2023-10-08T09:31:52;102464.22;;;20.77;100.00
78016;BME280;67223;51.102;5.882;2023-10-08T09:34:21;102465.50;;;20.73;100.00
78016;BME280;67223;51.102;5.882;2023-10-08T09:36:46;102461.81;;;20.46;100.00
78016;BME280;67223;51.102;5.882;2023-10-08T09:39:12;102466.53;;;20.72;100.00
78016;BME280;67223;51.102;5.882;2023-10-08T09:41:49;102464.00;;;20.88;100.00
78016;BME280;67223;51.102;5.882;2023-10-08T09:44:18;102459.34;;;20.98;100.00
78016;BME280;67223;51.102;5.882;2023-10-08T09:46:48;102464.91;;;21.06;100.00
78016;BME280;67223;51.102;5.882;2023-10-08T09:49:17;102463.13;;;21.15;100.00
78016;BME280;67223;51.102;5.882;2023-10-08T09:51:44;102462.56;;;21.11;100.00
78016;BME280;67223;51.102;5.882;2023-10-08T09:54:17;102463.78;;;20.99;100.00
78016;BME280;67223;51.102;5.882;2023-10-08T09:56:46;102456.28;;;21.11;100.00
78016;BME280;67223;51.102;5.882;2023-10-08T09:59:13;102457.84;;;21.48;100.00
78016;BME280;67223;51.102;5.882;2023-10-08T10:01:41;102460.09;;;21.71;100.00
78016;BME280;67223;51.102;5.882;2023-10-08T10:04:11;102460.53;;;21.84;100.00
78016;BME280;67223;51.102;5.882;2023-10-08T10:06:38;102439.91;;;21.99;100.00
78016;BME280;67223;51.102;5.882;2023-10-08T10:09:05;102445.97;;;21.93;100.00
78016;BME280;67223;51.102;5.882;2023-10-08T10:11:47;102446.22;;;21.82;100.00
78016;BME280;67223;51.102;5.882;2023-10-08T10:14:13;102455.06;;;21.84;100.00
78016;BME280;67223;51.102;5.882;2023-10-08T10:16:39;102449.41;;;22.21;100.00
78016;BME280;67223;51.102;5.882;2023-10-08T10:19:16;102446.44;;;22.40;100.00
78016;BME280;67223;51.102;5.882;2023-10-08T10:21:42;102452.13;;;22.55;100.00
78016;BME280;67223;51.102;5.882;2023-10-08T10:24:23;102442.47;;;22.68;100.00
78016;BME280;67223;51.102;5.882;2023-10-08T10:27:09;102444.78;;;22.89;100.00
78016;BME280;67223;51.102;5.882;2023-10-08T10:29:36;102437.47;;;22.90;100.00
78016;BME280;67223;51.102;5.882;2023-10-08T10:32:01;102443.19;;;23.53;100.00
78016;BME280;67223;51.102;5.882;2023-10-08T10:34:29;102431.59;;;23.67;100.00
78016;BME280;67223;51.102;5.882;2023-10-08T10:36:59;102426.38;;;24.13;100.00
78016;BME280;67223;51.102;5.882;2023-10-08T10:39:28;102418.50;;;24.34;100.00
78016;BME280;67223;51.102;5.882;2023-10-08T10:42:00;102415.09;;;24.32;100.00
78016;BME280;67223;51.102;5.882;2023-10-08T10:44:32;102418.28;;;23.80;100.00
78016;BME280;67223;51.102;5.882;2023-10-08T10:46:59;102404.25;;;23.99;100.00
78016;BME280;67223;51.102;5.882;2023-10-08T10:49:44;102409.38;;;23.86;100.00
78016;BME280;67223;51.102;5.882;2023-10-08T10:52:20;102414.19;;;23.76;100.00
78016;BME280;67223;51.102;5.882;2023-10-08T10:55:04;102427.59;;;24.18;100.00
78016;BME280;67223;51.102;5.882;2023-10-08T10:57:50;102431.72;;;23.17;100.00
78016;BME280;67223;51.102;5.882;2023-10-08T11:00:27;102440.38;;;24.26;100.00
78016;BME280;67223;51.102;5.882;2023-10-08T11:03:01;102412.72;;;24.99;100.00
78016;BME280;67223;51.102;5.882;2023-10-08T11:05:41;102414.47;;;24.06;100.00
78016;BME280;67223;51.102;5.882;2023-10-08T11:08:13;102408.25;;;24.67;100.00
78016;BME280;67223;51.102;5.882;2023-10-08T11:10:42;102408.44;;;23.55;100.00
78016;BME280;67223;51.102;5.882;2023-10-08T11:13:18;102417.25;;;23.33;100.00
78016;BME280;67223;51.102;5.882;2023-10-08T11:15:49;102409.56;;;22.96;100.00
78016;BME280;67223;51.102;5.882;2023-10-08T11:18:19;102410.59;;;23.11;100.00
78016;BME280;67223;51.102;5.882;2023-10-08T11:20:46;102410.31;;;22.72;100.00
78016;BME280;67223;51.102;5.882;2023-10-08T11:23:36;102422.75;;;23.49;100.00
78016;BME280;67223;51.102;5.882;2023-10-08T11:26:05;102424.78;;;23.47;100.00
78016;BME280;67223;51.102;5.882;2023-10-08T11:28:36;102418.31;;;23.48;100.00
78016;BME280;67223;51.102;5.882;2023-10-08T11:31:07;102419.00;;;23.50;100.00
78016;BME280;67223;51.102;5.882;2023-10-08T11:33:39;102412.56;;;24.22;100.00
78016;BME280;67223;51.102;5.882;2023-10-08T11:36:06;102393.94;;;24.34;100.00
78016;BME280;67223;51.102;5.882;2023-10-08T11:38:42;102396.38;;;24.21;100.00
78016;BME280;67223;51.102;5.882;2023-10-08T11:41:11;102394.31;;;24.23;100.00
78016;BME280;67223;51.102;5.882;2023-10-08T11:43:52;102393.81;;;24.19;100.00
78016;BME280;67223;51.102;5.882;2023-10-08T11:46:29;102392.72;;;23.41;100.00
78016;BME280;67223;51.102;5.882;2023-10-08T11:49:07;102412.78;;;23.07;100.00
78016;BME280;67223;51.102;5.882;2023-10-08T11:51:37;102403.25;;;23.11;100.00
78016;BME280;67223;51.102;5.882;2023-10-08T11:54:02;102406.03;;;23.36;100.00
78016;BME280;67223;51.102;5.882;2023-10-08T11:56:30;102402.78;;;23.65;100.00
78016;BME280;67223;51.102;5.882;2023-10-08T11:58:55;102400.31;;;24.18;100.00
78016;BME280;67223;51.102;5.882;2023-10-08T12:01:23;102392.97;;;24.02;100.00
78016;BME280;67223;51.102;5.882;2023-10-08T12:03:49;102401.53;;;23.91;100.00
78016;BME280;67223;51.102;5.882;2023-10-08T12:06:15;102398.97;;;23.98;100.00
78016;BME280;67223;51.102;5.882;2023-10-08T12:08:44;102398.00;;;23.75;100.00
78016;BME280;67223;51.102;5.882;2023-10-08T12:11:12;102396.13;;;23.59;100.00
78016;BME280;67223;51.102;5.882;2023-10-08T12:13:39;102394.41;;;23.74;100.00
78016;BME280;67223;51.102;5.882;2023-10-08T12:16:11;102384.34;;;23.83;100.00
78016;BME280;67223;51.102;5.882;2023-10-08T12:18:45;102390.91;;;24.13;100.00
78016;BME280;67223;51.102;5.882;2023-10-08T12:21:13;102387.03;;;23.99;100.00
78016;BME280;67223;51.102;5.882;2023-10-08T12:23:41;102385.31;;;23.98;100.00
78016;BME280;67223;51.102;5.882;2023-10-08T12:26:09;102387.22;;;23.89;100.00
78016;BME280;67223;51.102;5.882;2023-10-08T12:28:35;102379.78;;;23.59;100.00
78016;BME280;67223;51.102;5.882;2023-10-08T12:31:04;102382.84;;;23.64;100.00
78016;BME280;67223;51.102;5.882;2023-10-08T12:33:29;102368.66;;;23.77;100.00
78016;BME280;67223;51.102;5.882;2023-10-08T12:35:57;102360.00;;;23.57;100.00
78016;BME280;67223;51.102;5.882;2023-10-08T12:38:24;102360.84;;;23.17;100.00
78016;BME280;67223;51.102;5.882;2023-10-08T12:40:53;102353.03;;;23.14;100.00
78016;BME280;67223;51.102;5.882;2023-10-08T12:43:20;102355.38;;;23.74;100.00
78016;BME280;67223;51.102;5.882;2023-10-08T12:45:47;102344.78;;;23.79;100.00
78016;BME280;67223;51.102;5.882;2023-10-08T12:48:21;102341.09;;;23.55;100.00
78016;BME280;67223;51.102;5.882;2023-10-08T12:50:47;102343.97;;;23.38;100.00
78016;BME280;67223;51.102;5.882;2023-10-08T12:53:20;102346.34;;;23.73;100.00
78016;BME280;67223;51.102;5.882;2023-10-08T12:55:49;102344.75;;;23.95;100.00
78016;BME280;67223;51.102;5.882;2023-10-08T12:58:20;102339.41;;;23.30;100.00
78016;BME280;67223;51.102;5.882;2023-10-08T13:00:48;102340.41;;;22.81;100.00
78016;BME280;67223;51.102;5.882;2023-10-08T13:03:23;102343.28;;;22.79;100.00
78016;BME280;67223;51.102;5.882;2023-10-08T13:05:52;102342.09;;;22.73;100.00
78016;BME280;67223;51.102;5.882;2023-10-08T13:08:20;102353.84;;;23.06;100.00
78016;BME280;67223;51.102;5.882;2023-10-08T13:10:49;102346.19;;;23.42;100.00
78016;BME280;67223;51.102;5.882;2023-10-08T13:13:14;102339.19;;;23.64;100.00